Time;durP1;ratioP1;P1;durP2;ratioP2;P2;SDS_P1;SDS_P2;PMS_P1;PMS_P2;Temp;Humidity;BMP_temperature;BMP_pressure;BME280_temperature;BME280_humidity;BME280_pressure;Samples;Min_cycle;Max_cycle;Signal;HPM_P1;HPM_P2
2021/11/18 00:01:16;;;;;;;6.47;3.30;;;25.60;97.70;;;;;;5075152;28;20021;-74
2021/11/18 00:03:46;;;;;;;5.03;3.40;;;25.20;97.80;;;;;;5075089;28;20017;-74
2021/11/18 00:06:16;;;;;;;6.80;3.60;;;24.80;98.00;;;;;;5075264;28;20032;-74
2021/11/18 00:08:44;;;;;;;7.47;3.20;;;24.80;98.60;;;;;;5075181;28;20257;-74
2021/11/18 00:11:12;;;;;;;6.25;3.10;;;24.90;98.90;;;;;;5073706;28;20029;-73
2021/11/18 00:13:44;;;;;;;9.35;3.40;;;24.70;98.80;;;;;;5075183;28;20049;-74
2021/11/18 00:16:11;;;;;;;6.28;3.05;;;24.80;99.20;;;;;;5075050;28;20027;-74
2021/11/18 00:18:41;;;;;;;6.68;2.90;;;25.00;98.90;;;;;;5073432;28;20048;-74
2021/11/18 00:21:14;;;;;;;6.63;3.40;;;25.00;99.10;;;;;;5075082;28;20039;-72
2021/11/18 00:23:53;;;;;;;5.38;3.10;;;24.90;98.80;;;;;;5075272;28;20035;-73
2021/11/18 00:26:22;;;;;;;8.60;3.80;;;25.10;98.80;;;;;;5073714;28;20473;-74
2021/11/18 00:28:51;;;;;;;5.30;2.97;;;24.90;98.80;;;;;;5074789;28;20031;-73
2021/11/18 00:31:23;;;;;;;7.03;3.40;;;25.10;98.40;;;;;;5074563;28;20017;-73
2021/11/18 00:33:51;;;;;;;6.07;3.10;;;25.60;98.70;;;;;;5074737;28;20032;-75
2021/11/18 00:36:19;;;;;;;9.40;3.40;;;25.30;97.50;;;;;;5074770;28;20025;-74
2021/11/18 00:38:47;;;;;;;6.25;3.22;;;25.10;98.00;;;;;;5073398;28;20020;-74
2021/11/18 00:41:15;;;;;;;5.82;2.97;;;25.30;97.80;;;;;;5072765;28;20088;-74
2021/11/18 00:43:44;;;;;;;4.93;3.10;;;25.60;97.50;;;;;;5074399;28;20021;-74
2021/11/18 00:46:12;;;;;;;7.95;3.40;;;25.70;97.20;;;;;;5073142;28;20047;-74
2021/11/18 00:48:40;;;;;;;4.05;2.60;;;25.40;97.40;;;;;;5073336;28;20090;-74
2021/11/18 00:51:11;;;;;;;3.72;3.00;;;25.40;97.80;;;;;;5074523;28;20028;-74
2021/11/18 00:53:42;;;;;;;3.70;2.72;;;25.30;98.00;;;;;;5074363;28;20028;-75
2021/11/18 00:56:10;;;;;;;4.90;2.88;;;25.70;98.00;;;;;;5074236;28;20036;-76
2021/11/18 00:58:38;;;;;;;5.88;3.05;;;25.70;97.40;;;;;;5074308;28;20054;-75
2021/11/18 01:01:07;;;;;;;4.85;3.38;;;25.80;97.90;;;;;;5074243;28;20036;-74
2021/11/18 01:03:35;;;;;;;4.35;3.25;;;25.80;97.90;;;;;;5072839;28;20025;-76
2021/11/18 01:06:02;;;;;;;4.50;3.10;;;25.80;97.90;;;;;;5073092;28;20079;-75
2021/11/18 01:08:30;;;;;;;6.22;3.05;;;25.80;97.90;;;;;;5073661;28;20485;-74
2021/11/18 01:11:10;;;;;;;4.75;3.17;;;25.80;98.10;;;;;;5072570;28;20026;-77
2021/11/18 01:13:39;;;;;;;5.72;2.90;;;25.90;97.50;;;;;;5072652;28;20077;-75
2021/11/18 01:16:09;;;;;;;3.73;2.87;;;25.50;98.30;;;;;;5073538;28;20085;-75
2021/11/18 01:18:36;;;;;;;3.53;2.80;;;25.60;98.80;;;;;;5073270;28;20292;-77
2021/11/18 01:21:05;;;;;;;4.93;3.10;;;25.30;98.40;;;;;;5072696;28;20063;-76
2021/11/18 01:23:36;;;;;;;4.22;3.03;;;25.30;98.90;;;;;;5072886;28;20035;-75
2021/11/18 01:26:04;;;;;;;;;;;25.40;98.70;;;;;;5074384;28;20021;-76
2021/11/18 01:28:31;;;;;;;4.40;2.90;;;25.70;98.60;;;;;;5074194;28;19904;-75
2021/11/18 01:30:58;;;;;;;4.30;2.90;;;25.50;98.30;;;;;;5072864;28;20029;-77
2021/11/18 01:33:26;;;;;;;5.82;2.97;;;25.50;98.50;;;;;;5072809;28;20063;-77
2021/11/18 01:35:55;;;;;;;4.90;3.10;;;25.50;98.70;;;;;;5072509;28;20115;-76
2021/11/18 01:38:22;;;;;;;4.88;3.13;;;25.70;98.50;;;;;;5072600;28;20021;-77
2021/11/18 01:40:53;;;;;;;4.93;3.03;;;25.40;98.90;;;;;;5074351;28;20534;-77
2021/11/18 01:43:24;;;;;;;5.20;3.20;;;25.60;98.80;;;;;;5057068;28;20029;-77
2021/11/18 01:45:53;;;;;;;4.22;3.20;;;25.60;98.70;;;;;;5071921;28;20029;-77
2021/11/18 01:48:21;;;;;;;3.92;2.67;;;25.90;98.50;;;;;;5072886;28;20058;-77
2021/11/18 01:50:51;;;;;;;3.42;2.47;;;26.10;97.50;;;;;;5072822;28;20027;-75
2021/11/18 01:53:36;;;;;;;4.95;2.85;;;25.90;97.00;;;;;;5072779;28;20385;-76
2021/11/18 01:56:16;;;;;;;5.38;2.70;;;25.90;97.00;;;;;;5071298;28;20021;-76
2021/11/18 01:58:45;;;;;;;4.43;3.10;;;25.70;97.60;;;;;;5072687;28;20138;-77
2021/11/18 02:01:12;;;;;;;5.30;2.90;;;25.90;97.20;;;;;;5072489;28;20077;-77
2021/11/18 02:03:41;;;;;;;3.42;2.60;;;26.10;96.40;;;;;;5071060;28;20029;-76
2021/11/18 02:06:15;;;;;;;4.63;2.63;;;25.90;97.30;;;;;;5072304;28;20021;-75
2021/11/18 02:08:43;;;;;;;6.68;2.90;;;25.90;96.90;;;;;;5072529;28;20492;-75
2021/11/18 02:11:31;;;;;;;4.97;3.00;;;25.90;96.90;;;;;;5073662;28;20024;-77
2021/11/18 02:13:59;;;;;;;5.13;3.10;;;25.80;97.50;;;;;;5073308;28;20389;-77
2021/11/18 02:16:27;;;;;;;5.13;2.88;;;25.80;97.10;;;;;;5071255;28;20028;-78
2021/11/18 02:18:55;;;;;;;5.78;3.20;;;25.80;96.60;;;;;;5072301;28;20076;-78
2021/11/18 02:21:23;;;;;;;6.00;3.33;;;25.60;97.00;;;;;;5072232;28;20120;-77
2021/11/18 02:23:56;;;;;;;4.53;2.70;;;26.00;97.00;;;;;;5071053;28;20024;-76
2021/11/18 02:26:25;;;;;;;6.70;3.03;;;25.70;96.60;;;;;;5072277;28;20029;-75
2021/11/18 02:28:56;;;;;;;5.13;3.30;;;25.80;97.70;;;;;;5070845;28;20016;-77
2021/11/18 02:31:26;;;;;;;5.32;3.30;;;26.10;97.20;;;;;;5075747;28;20384;-79
2021/11/18 02:33:54;;;;;;;4.80;3.00;;;26.40;97.10;;;;;;5074808;28;20476;-78
2021/11/18 02:36:23;;;;;;;5.75;2.90;;;26.00;97.20;;;;;;5076095;28;20389;-78
2021/11/18 02:38:50;;;;;;;4.97;3.08;;;25.80;97.70;;;;;;5074847;28;20032;-77
2021/11/18 02:41:21;;;;;;;5.07;2.88;;;26.10;97.60;;;;;;5074663;28;20078;-77
2021/11/18 02:43:49;;;;;;;7.45;3.22;;;25.90;97.10;;;;;;5075967;28;20017;-76
2021/11/18 02:46:17;;;;;;;9.20;3.53;;;25.80;97.60;;;;;;5075960;28;20016;-77
2021/11/18 02:48:45;;;;;;;5.15;2.75;;;25.70;98.40;;;;;;5074588;28;20020;-77
2021/11/18 02:51:17;;;;;;;5.43;3.33;;;25.50;98.10;;;;;;5075788;28;20028;-78
2021/11/18 02:53:45;;;;;;;6.00;2.90;;;25.50;97.80;;;;;;5075750;28;20126;-77
2021/11/18 02:56:13;;;;;;;4.57;2.80;;;25.60;98.30;;;;;;5075747;28;20184;-77
2021/11/18 02:58:41;;;;;;;5.13;3.40;;;26.10;97.50;;;;;;5075627;28;20028;-77
2021/11/18 03:01:33;;;;;;;5.45;3.00;;;25.90;97.30;;;;;;5075598;28;20028;-76
2021/11/18 03:04:01;;;;;;;7.88;3.38;;;25.80;97.50;;;;;;5067521;28;20489;-76
2021/11/18 03:06:29;;;;;;;4.88;3.50;;;25.90;97.20;;;;;;5074242;28;20389;-75
2021/11/18 03:08:56;;;;;;;5.80;3.03;;;26.10;97.80;;;;;;5075835;28;20028;-75
2021/11/18 03:11:26;;;;;;;5.82;3.10;;;26.10;97.70;;;;;;5074151;28;20027;-78
2021/11/18 03:13:55;;;;;;;5.80;2.90;;;26.10;97.20;;;;;;5075381;28;20027;-78
2021/11/18 03:16:24;;;;;;;6.20;3.50;;;25.80;97.60;;;;;;5075325;28;20046;-78
2021/11/18 03:18:51;;;;;;;7.32;3.25;;;25.60;97.80;;;;;;5075150;28;20124;-78
2021/11/18 03:21:22;;;;;;;6.25;3.05;;;25.90;98.00;;;;;;5073848;28;20060;-79
2021/11/18 03:23:50;;;;;;;5.53;2.83;;;26.20;97.50;;;;;;5075077;28;20143;-79
2021/11/18 03:26:22;;;;;;;4.28;2.90;;;25.90;97.60;;;;;;5057176;28;20031;-76
2021/11/18 03:28:49;;;;;;;4.30;3.10;;;25.90;96.80;;;;;;5073744;28;20108;-74
2021/11/18 03:31:20;;;;;;;6.03;3.38;;;25.90;97.40;;;;;;5073675;28;20029;-74
2021/11/18 03:33:56;;;;;;;7.03;3.47;;;26.20;96.90;;;;;;5075284;28;20020;-74
2021/11/18 03:36:26;;;;;;;7.03;3.40;;;26.20;97.70;;;;;;5073648;28;20082;-75
2021/11/18 03:38:56;;;;;;;6.23;3.50;;;26.60;97.30;;;;;;5074926;28;20024;-73
2021/11/18 03:41:25;;;;;;;8.73;3.67;;;26.60;97.80;;;;;;5072704;28;20389;-74
2021/11/18 03:43:59;;;;;;;7.68;3.58;;;26.50;97.20;;;;;;5073440;28;20029;-74
2021/11/18 03:46:31;;;;;;;6.18;3.50;;;26.40;97.50;;;;;;5073460;28;20020;-74
2021/11/18 03:48:59;;;;;;;6.05;3.25;;;26.70;97.30;;;;;;5073430;28;20029;-74
2021/11/18 03:51:32;;;;;;;5.03;3.00;;;26.50;97.10;;;;;;5073380;28;20059;-73
2021/11/18 03:54:04;;;;;;;9.38;3.30;;;26.10;97.60;;;;;;5074770;28;20021;-75
2021/11/18 03:56:38;;;;;;;7.15;3.60;;;26.30;97.50;;;;;;5074498;28;20074;-75
2021/11/18 03:59:11;;;;;;;4.75;3.15;;;26.50;97.40;;;;;;5074502;28;20020;-74
2021/11/18 04:01:40;;;;;;;6.18;3.00;;;26.60;97.90;;;;;;5073069;28;20119;-74
2021/11/18 04:04:11;;;;;;;6.53;3.75;;;26.60;97.30;;;;;;5074335;28;20060;-75
2021/11/18 04:06:41;;;;;;;7.50;3.20;;;26.70;97.20;;;;;;5073780;28;20087;-76
2021/11/18 04:09:09;;;;;;;6.47;3.22;;;26.80;97.30;;;;;;5056968;28;20119;-77
2021/11/18 04:11:39;;;;;;;6.05;2.88;;;26.70;97.60;;;;;;5073093;28;20033;-77
2021/11/18 04:14:07;;;;;;;4.97;3.15;;;26.70;98.30;;;;;;5077577;28;20051;-77
2021/11/18 04:16:34;;;;;;;8.98;3.75;;;27.10;97.70;;;;;;5074871;28;20078;-77
2021/11/18 04:19:02;;;;;;;8.05;4.13;;;26.50;97.70;;;;;;5075837;28;20045;-76
2021/11/18 04:21:31;;;;;;;6.97;3.67;;;26.40;98.60;;;;;;5078151;28;20032;-77
2021/11/18 04:24:05;;;;;;;8.52;3.78;;;26.60;98.30;;;;;;5073873;28;20020;-77
2021/11/18 04:26:32;;;;;;;6.70;3.92;;;26.40;98.40;;;;;;5074504;28;20472;-77
2021/11/18 04:29:00;;;;;;;5.40;3.75;;;26.30;99.90;;;;;;5072553;28;20021;-78
2021/11/18 04:31:30;;;;;;;7.38;3.85;;;26.20;99.90;;;;;;5073942;28;20019;-78
2021/11/18 04:33:58;;;;;;;10.07;3.92;;;26.10;99.90;;;;;;5072535;28;20073;-77
2021/11/18 04:36:28;;;;;;;5.50;3.10;;;26.30;99.90;;;;;;5073698;28;20020;-78
2021/11/18 04:38:57;;;;;;;7.22;3.05;;;26.40;99.90;;;;;;5072477;28;20028;-78
2021/11/18 04:41:27;;;;;;;4.75;3.33;;;26.20;99.90;;;;;;5073736;28;20032;-77
2021/11/18 04:43:55;;;;;;;6.32;3.40;;;26.20;99.90;;;;;;5072494;28;20024;-77
2021/11/18 04:46:24;;;;;;;6.05;3.40;;;26.40;99.90;;;;;;5072537;28;20499;-79
2021/11/18 04:48:52;;;;;;;6.82;3.67;;;26.10;99.90;;;;;;5055863;28;20028;-77
2021/11/18 04:51:22;;;;;;;6.15;3.50;;;26.20;99.90;;;;;;5073561;28;20063;-79
2021/11/18 04:53:51;;;;;;;8.57;3.88;;;26.30;99.90;;;;;;5072124;28;20040;-77
2021/11/18 04:56:18;;;;;;;7.50;4.07;;;26.30;99.90;;;;;;5055506;28;20509;-77
2021/11/18 04:58:46;;;;;;;8.57;3.85;;;26.20;99.90;;;;;;5072024;28;20059;-75
2021/11/18 05:01:15;;;;;;;8.43;3.75;;;26.20;99.90;;;;;;5073110;28;20028;-75
2021/11/18 05:03:43;;;;;;;9.63;4.00;;;26.20;99.90;;;;;;5073029;28;20087;-75
2021/11/18 05:06:12;;;;;;;7.65;3.90;;;26.20;99.90;;;;;;5073276;28;20016;-75
2021/11/18 05:08:40;;;;;;;8.60;3.63;;;26.70;99.90;;;;;;5071805;28;20024;-76
2021/11/18 05:11:08;;;;;;;6.75;3.78;;;26.60;99.90;;;;;;5073188;28;20380;-76
2021/11/18 05:13:35;;;;;;;5.68;3.88;;;26.30;99.90;;;;;;5055399;28;20148;-78
2021/11/18 05:16:06;;;;;;;7.47;3.85;;;26.40;99.90;;;;;;5073028;28;20024;-77
2021/11/18 05:18:35;;;;;;;6.25;3.58;;;26.20;99.80;;;;;;5071976;28;20056;-77
2021/11/18 05:21:03;;;;;;;6.38;3.53;;;26.40;99.90;;;;;;5071535;28;20056;-78
2021/11/18 05:23:34;;;;;;;8.15;3.60;;;26.30;99.90;;;;;;5071907;28;20055;-78
2021/11/18 05:26:03;;;;;;;5.35;3.10;;;26.60;99.90;;;;;;5071800;28;20388;-77
2021/11/18 05:28:31;;;;;;;5.53;3.78;;;26.30;99.90;;;;;;5072914;28;20056;-76
2021/11/18 05:30:58;;;;;;;5.63;3.58;;;26.50;99.90;;;;;;5072849;28;20024;-75
2021/11/18 05:33:29;;;;;;;9.73;3.47;;;26.60;99.90;;;;;;5072758;28;20470;-74
2021/11/18 05:35:57;;;;;;;5.65;3.70;;;26.70;99.40;;;;;;5072950;28;20435;-76
2021/11/18 05:38:25;;;;;;;5.63;3.60;;;26.60;99.40;;;;;;5071472;28;20020;-76
2021/11/18 05:40:54;;;;;;;7.47;3.83;;;26.80;99.30;;;;;;5071468;28;20055;-77
2021/11/18 05:43:23;;;;;;;6.15;3.50;;;27.50;98.90;;;;;;5071317;28;20396;-75
2021/11/18 05:45:50;;;;;;;5.50;3.50;;;26.80;99.00;;;;;;5071201;28;20044;-76
2021/11/18 05:48:19;;;;;;;7.13;3.90;;;26.30;99.40;;;;;;5071221;28;20070;-75
2021/11/18 05:50:51;;;;;;;7.40;3.63;;;26.30;99.70;;;;;;5072448;28;20441;-76
2021/11/18 05:53:25;;;;;;;7.68;3.88;;;26.10;99.90;;;;;;5072438;28;20469;-76
2021/11/18 05:55:54;;;;;;;7.10;3.80;;;26.60;99.90;;;;;;5072317;28;20024;-75
2021/11/18 05:58:22;;;;;;;7.07;4.05;;;26.60;99.90;;;;;;5072334;28;20389;-75
2021/11/18 06:00:50;;;;;;;5.00;3.70;;;27.10;99.70;;;;;;5072424;28;20028;-76
2021/11/18 06:03:17;;;;;;;7.47;3.88;;;26.90;99.10;;;;;;5072179;28;20039;-75
2021/11/18 06:05:45;;;;;;;7.38;3.58;;;26.90;99.80;;;;;;5073838;28;20020;-76
2021/11/18 06:08:13;;;;;;;5.90;3.55;;;27.10;99.30;;;;;;5076202;28;20017;-76
2021/11/18 06:10:41;;;;;;;8.65;4.00;;;26.80;99.80;;;;;;5076251;28;20025;-75
2021/11/18 06:13:09;;;;;;;7.00;3.28;;;26.40;99.90;;;;;;5074814;28;20078;-76
2021/11/18 06:15:37;;;;;;;9.95;4.00;;;26.60;99.90;;;;;;5076274;28;20024;-76
2021/11/18 06:18:05;;;;;;;6.88;3.47;;;25.80;99.90;;;;;;5074360;28;20056;-75
2021/11/18 06:20:32;;;;;;;6.70;4.00;;;25.60;99.90;;;;;;5074551;28;20029;-76
2021/11/18 06:23:00;;;;;;;8.82;4.10;;;25.30;99.90;;;;;;5075814;28;20085;-75
2021/11/18 06:25:30;;;;;;;11.07;4.00;;;25.30;99.90;;;;;;5076029;28;20104;-77
2021/11/18 06:27:59;;;;;;;8.85;3.80;;;25.40;99.90;;;;;;5076043;28;20385;-78
2021/11/18 06:30:39;;;;;;;9.63;4.35;;;25.80;99.90;;;;;;5074673;28;20120;-78
2021/11/18 06:33:08;;;;;;;9.63;3.67;;;25.90;99.90;;;;;;5075989;28;20047;-77
2021/11/18 06:35:36;;;;;;;4.97;4.05;;;26.30;99.90;;;;;;5074394;28;20029;-74
2021/11/18 06:38:04;;;;;;;9.23;4.53;;;26.20;99.90;;;;;;5074428;28;20405;-74
2021/11/18 06:40:32;;;;;;;8.30;4.75;;;26.00;99.90;;;;;;5075702;28;20154;-74
2021/11/18 06:43:01;;;;;;;11.10;4.75;;;26.00;99.90;;;;;;5074360;28;20020;-74
2021/11/18 06:45:30;;;;;;;11.15;4.65;;;25.90;99.90;;;;;;5075806;28;20052;-75
2021/11/18 06:47:58;;;;;;;6.78;3.92;;;25.40;99.90;;;;;;5075718;28;20393;-75
2021/11/18 06:50:26;;;;;;;8.38;4.15;;;25.80;99.90;;;;;;5074479;28;20024;-75
2021/11/18 06:52:53;;;;;;;8.32;3.90;;;25.50;99.90;;;;;;5075516;28;20021;-75
2021/11/18 06:55:21;;;;;;;14.75;4.65;;;25.50;99.90;;;;;;5074458;28;20114;-76
2021/11/18 06:57:50;;;;;;;11.80;4.35;;;25.00;99.90;;;;;;5074481;28;20036;-75
2021/11/18 07:00:19;;;;;;;7.88;4.20;;;24.60;99.90;;;;;;5074337;28;20547;-75
2021/11/18 07:02:46;;;;;;;7.32;4.55;;;24.10;99.90;;;;;;5075522;28;20017;-75
2021/11/18 07:05:13;;;;;;;9.55;4.57;;;23.80;99.90;;;;;;5075397;28;20024;-75
2021/11/18 07:07:41;;;;;;;9.07;4.22;;;23.70;99.90;;;;;;5074244;28;20025;-75
2021/11/18 07:10:11;;;;;;;7.53;4.10;;;23.40;99.90;;;;;;5074083;28;20020;-75
2021/11/18 07:12:38;;;;;;;11.65;4.78;;;23.10;99.90;;;;;;5074151;28;20038;-76
2021/11/18 07:15:08;;;;;;;9.85;4.90;;;23.00;99.90;;;;;;5075480;28;20021;-75
2021/11/18 07:17:36;;;;;;;11.00;5.00;;;23.00;99.90;;;;;;5072960;28;20092;-75
2021/11/18 07:20:06;;;;;;;11.27;4.95;;;22.80;99.90;;;;;;5075569;28;20481;-75
2021/11/18 07:22:34;;;;;;;10.50;5.22;;;22.80;99.90;;;;;;5073913;28;20020;-76
2021/11/18 07:25:03;;;;;;;12.13;5.05;;;22.70;99.90;;;;;;5075296;28;20021;-75
2021/11/18 07:27:30;;;;;;;11.77;5.00;;;22.60;99.90;;;;;;5075348;28;20024;-75
2021/11/18 07:29:58;;;;;;;9.82;5.45;;;22.60;99.90;;;;;;5075105;28;20021;-75
2021/11/18 07:32:26;;;;;;;12.50;5.95;;;22.40;99.90;;;;;;5074189;28;20512;-75
2021/11/18 07:34:54;;;;;;;10.90;6.00;;;22.10;99.90;;;;;;5057235;28;20504;-75
2021/11/18 07:37:22;;;;;;;10.23;5.93;;;22.00;99.90;;;;;;5073824;28;20469;-75
2021/11/18 07:39:49;;;;;;;10.05;5.50;;;22.00;99.90;;;;;;5073717;28;20372;-76
2021/11/18 07:42:16;;;;;;;15.05;6.05;;;21.90;99.90;;;;;;5075006;28;20020;-74
2021/11/18 07:44:44;;;;;;;12.38;6.85;;;21.80;99.90;;;;;;5075307;28;20048;-74
2021/11/18 07:47:11;;;;;;;13.52;6.20;;;21.70;99.90;;;;;;5074984;28;20021;-76
2021/11/18 07:49:39;;;;;;;13.20;6.05;;;21.80;99.90;;;;;;5074791;28;20048;-75
2021/11/18 07:52:07;;;;;;;14.15;7.30;;;21.70;99.90;;;;;;5074909;28;20099;-75
2021/11/18 07:54:34;;;;;;;10.93;7.07;;;21.70;99.90;;;;;;5073469;28;20051;-75
2021/11/18 07:57:02;;;;;;;14.05;6.70;;;21.60;99.90;;;;;;5074786;28;20055;-75
2021/11/18 07:59:29;;;;;;;10.77;6.55;;;21.60;99.90;;;;;;5074660;28;20035;-75
2021/11/18 08:01:57;;;;;;;10.40;6.13;;;21.50;99.90;;;;;;5073263;28;20032;-76
2021/11/18 08:04:25;;;;;;;12.60;6.50;;;21.50;99.90;;;;;;5074598;28;20016;-76
2021/11/18 08:06:52;;;;;;;11.48;7.85;;;21.40;99.90;;;;;;5073401;28;20024;-74
2021/11/18 08:09:20;;;;;;;11.40;6.30;;;21.40;99.90;;;;;;5073367;28;20247;-75
2021/11/18 08:11:55;;;;;;;12.80;6.80;;;21.30;99.90;;;;;;5073236;28;20439;-76
2021/11/18 08:14:24;;;;;;;8.63;5.55;;;21.30;99.90;;;;;;5073112;28;20028;-76
2021/11/18 08:16:53;;;;;;;11.57;7.03;;;21.20;99.90;;;;;;5072995;28;20029;-76
2021/11/18 08:19:21;;;;;;;11.25;7.45;;;21.20;99.90;;;;;;5073021;28;20211;-76
2021/11/18 08:21:50;;;;;;;11.93;5.55;;;21.10;99.90;;;;;;5072919;28;20162;-75
2021/11/18 08:24:19;;;;;;;10.95;6.20;;;21.10;99.90;;;;;;5073058;28;20374;-75
2021/11/18 08:26:48;;;;;;;10.10;6.65;;;21.00;99.90;;;;;;5074430;28;20017;-78
2021/11/18 08:29:25;;;;;;;13.20;8.43;;;21.10;99.90;;;;;;5074653;28;20389;-78
2021/11/18 08:31:56;;;;;;;21.13;13.60;;;21.10;99.90;;;;;;5072944;28;20473;-77
2021/11/18 08:34:24;;;;;;;12.50;8.10;;;21.00;99.90;;;;;;5074475;28;20096;-79
2021/11/18 08:36:54;;;;;;;12.15;7.05;;;21.00;99.90;;;;;;5074460;28;20056;-77
2021/11/18 08:39:24;;;;;;;15.10;7.38;;;21.00;99.90;;;;;;5074805;28;20028;-78
2021/11/18 08:41:56;;;;;;;12.48;7.60;;;20.90;99.90;;;;;;5073324;28;20032;-77
2021/11/18 08:44:24;;;;;;;10.75;7.55;;;20.90;99.90;;;;;;5072873;28;20111;-77
2021/11/18 08:46:54;;;;;;;13.13;7.03;;;21.00;99.90;;;;;;5074338;28;20021;-76
2021/11/18 08:49:24;;;;;;;13.10;6.63;;;20.90;99.90;;;;;;5074113;28;20043;-77
2021/11/18 08:51:53;;;;;;;13.63;6.00;;;20.90;99.90;;;;;;5072657;28;20032;-76
2021/11/18 08:54:23;;;;;;;10.80;5.40;;;21.00;99.90;;;;;;5072588;28;20040;-77
2021/11/18 08:56:51;;;;;;;;;;;20.90;99.90;;;;;;5072856;28;20428;-77
2021/11/18 08:59:23;;;;;;;12.13;5.03;;;20.90;99.90;;;;;;5073517;28;20391;-72
2021/11/18 09:01:59;;;;;;;13.75;5.30;;;20.90;99.90;;;;;;5072200;28;20393;-75
2021/11/18 09:04:27;;;;;;;8.60;6.00;;;21.00;99.90;;;;;;5072427;28;20462;-75
2021/11/18 09:06:55;;;;;;;11.05;4.70;;;21.00;99.90;;;;;;5072779;28;20056;-75
2021/11/18 09:09:27;;;;;;;6.45;4.60;;;21.00;99.90;;;;;;5072852;28;20024;-74
2021/11/18 09:11:57;;;;;;;12.85;5.60;;;21.00;99.90;;;;;;5073638;28;20020;-76
2021/11/18 09:14:27;;;;;;;8.43;4.83;;;20.90;99.90;;;;;;5073457;28;20382;-74
2021/11/18 09:16:55;;;;;;;16.40;5.45;;;21.00;99.90;;;;;;5072111;28;20311;-77
2021/11/18 09:19:25;;;;;;;10.07;4.82;;;21.10;99.90;;;;;;5073189;28;20158;-75
2021/11/18 09:21:56;;;;;;;8.52;4.85;;;20.90;99.90;;;;;;5073239;28;20029;-74
2021/11/18 09:24:39;;;;;;;10.10;5.60;;;20.90;99.90;;;;;;5071950;28;20017;-75
2021/11/18 09:27:14;;;;;;;9.45;5.85;;;20.90;99.90;;;;;;5072096;28;20394;-76
2021/11/18 09:29:43;;;;;;;10.00;5.82;;;20.90;99.90;;;;;;5073897;28;20362;-76
2021/11/18 09:32:10;;;;;;;6.75;5.65;;;20.90;99.90;;;;;;5071897;28;20029;-75
2021/11/18 09:34:38;;;;;;;10.60;5.60;;;20.90;99.90;;;;;;5071892;28;20370;-75
2021/11/18 09:37:07;;;;;;;8.05;5.13;;;20.90;99.90;;;;;;5073024;28;20021;-74
2021/11/18 09:39:35;;;;;;;9.80;5.13;;;20.90;99.90;;;;;;5071077;28;20032;-75
2021/11/18 09:42:07;;;;;;;13.10;5.38;;;20.90;99.90;;;;;;5072990;28;20029;-74
2021/11/18 09:45:02;;;;;;;12.75;5.45;;;20.90;99.90;;;;;;5073254;28;20554;-75
2021/11/18 09:47:45;;;;;;;9.27;5.50;;;20.90;99.90;;;;;;5073435;28;20025;-75
2021/11/18 09:50:15;;;;;;;12.32;6.60;;;20.80;99.90;;;;;;5073056;28;20020;-75
2021/11/18 09:52:58;;;;;;;14.65;6.22;;;20.80;99.90;;;;;;5073193;28;20044;-76
2021/11/18 09:55:55;;;;;;;12.98;7.20;;;20.80;99.90;;;;;;5071718;28;20051;-75
2021/11/18 09:58:29;;;;;;;12.82;6.25;;;20.80;99.90;;;;;;5061097;28;20029;-76
2021/11/18 10:01:48;;;;;;;15.05;7.45;;;20.80;99.90;;;;;;5073386;28;20119;-79
2021/11/18 10:04:24;;;;;;;16.55;7.13;;;20.80;99.90;;;;;;5015684;28;20025;-75
2021/11/18 10:07:02;;;;;;;13.80;7.60;;;20.80;99.90;;;;;;5068497;28;20032;-78
2021/11/18 10:09:29;;;;;;;17.45;8.90;;;20.90;99.90;;;;;;5071874;28;20059;-78
2021/11/18 10:12:02;;;;;;;16.20;8.18;;;20.70;99.90;;;;;;5071973;28;20116;-78
2021/11/18 10:14:56;;;;;;;14.43;8.25;;;20.70;99.90;;;;;;5073468;28;20032;-78
2021/11/18 10:17:35;;;;;;;13.43;9.00;;;20.70;99.90;;;;;;5072450;28;20029;-80
2021/11/18 10:20:06;;;;;;;14.00;8.32;;;20.70;99.90;;;;;;5073490;28;20033;-77
2021/11/18 10:22:41;;;;;;;16.83;8.73;;;20.60;99.90;;;;;;5071546;28;20107;-75
2021/11/18 10:25:15;;;;;;;19.80;10.00;;;20.60;99.90;;;;;;5072938;28;20012;-78
2021/11/18 10:28:20;;;;;;;17.50;9.45;;;20.60;99.90;;;;;;5072952;28;20477;-77
2021/11/18 10:31:06;;;;;;;18.98;9.98;;;20.50;99.90;;;;;;5073114;28;20039;-77
2021/11/18 10:34:10;;;;;;;13.95;10.15;;;20.60;99.90;;;;;;5072894;28;20024;-78
2021/11/18 10:37:03;;;;;;;16.13;9.82;;;20.50;99.90;;;;;;5073300;28;20104;-80
2021/11/18 10:39:55;;;;;;;14.00;9.88;;;20.70;99.90;;;;;;5073468;28;20503;-79
2021/11/18 10:42:36;;;;;;;15.93;10.50;;;20.40;99.90;;;;;;5071833;28;20035;-75
2021/11/18 10:45:09;;;;;;;;;;;20.50;99.90;;;;;;5072405;28;20070;-74
2021/11/18 10:47:56;;;;;;;18.33;11.75;;;20.40;99.90;;;;;;5071270;28;20037;-76
2021/11/18 10:50:45;;;;;;;17.67;12.27;;;20.40;99.90;;;;;;5073954;28;20342;-74
2021/11/18 10:53:17;;;;;;;23.58;12.27;;;20.40;99.90;;;;;;5074983;28;20035;-75
2021/11/18 10:56:09;;;;;;;17.67;11.52;;;20.30;99.90;;;;;;5074968;28;20466;-76
2021/11/18 10:58:45;;;;;;;19.45;12.38;;;20.30;99.90;;;;;;5070020;28;20047;-75
2021/11/18 11:01:27;;;;;;;20.17;13.48;;;20.30;99.90;;;;;;5075762;28;20028;-76
2021/11/18 11:03:57;;;;;;;18.65;12.80;;;20.30;99.90;;;;;;5074620;28;20035;-76
2021/11/18 11:06:27;;;;;;;18.38;12.80;;;20.30;99.90;;;;;;5075116;28;20107;-76
2021/11/18 11:09:06;;;;;;;19.75;13.30;;;20.20;99.90;;;;;;5074258;28;20078;-75
2021/11/18 11:12:03;;;;;;;18.83;12.88;;;20.20;99.90;;;;;;5074345;28;20025;-74
2021/11/18 11:14:58;;;;;;;19.83;13.70;;;20.20;99.90;;;;;;5074389;28;20025;-74
2021/11/18 11:17:57;;;;;;;17.38;13.07;;;20.20;99.90;;;;;;5075517;28;20028;-75
2021/11/18 11:20:51;;;;;;;21.98;14.02;;;20.10;99.90;;;;;;5062672;28;20033;-75
2021/11/18 11:23:43;;;;;;;18.52;13.18;;;20.10;99.90;;;;;;5074393;28;20057;-74
2021/11/18 11:26:28;;;;;;;21.08;14.15;;;20.10;99.90;;;;;;5075476;28;20034;-74
2021/11/18 11:29:25;;;;;;;15.65;13.98;;;20.00;99.90;;;;;;5074059;28;20485;-74
2021/11/18 11:32:17;;;;;;;21.27;14.30;;;19.90;99.90;;;;;;5075400;28;20362;-74
2021/11/18 11:35:14;;;;;;;20.35;14.50;;;20.00;99.90;;;;;;5075240;28;20016;-75
2021/11/18 11:37:44;;;;;;;26.80;14.40;;;19.80;99.90;;;;;;5071095;28;20028;-75
2021/11/18 11:40:18;;;;;;;22.75;15.27;;;19.80;99.90;;;;;;5073750;28;20035;-75
2021/11/18 11:43:09;;;;;;;21.65;15.48;;;19.80;99.90;;;;;;5073944;28;20021;-75
2021/11/18 11:45:45;;;;;;;24.33;15.95;;;19.80;99.90;;;;;;5057456;28;20041;-76
2021/11/18 11:48:47;;;;;;;21.00;15.77;;;19.80;99.90;;;;;;5073724;28;20028;-74
2021/11/18 11:51:46;;;;;;;23.58;16.38;;;19.70;99.90;;;;;;5073775;28;20123;-74
2021/11/18 11:54:57;;;;;;;19.88;15.57;;;19.80;99.90;;;;;;5075096;28;20048;-74
2021/11/18 11:57:33;;;;;;;18.17;15.52;;;19.70;99.90;;;;;;5058879;28;20041;-74
2021/11/18 12:00:33;;;;;;;22.35;16.48;;;19.70;99.90;;;;;;5074740;28;20050;-75
2021/11/18 12:03:19;;;;;;;22.38;17.42;;;19.70;99.90;;;;;;5053232;28;20119;-74
2021/11/18 12:06:01;;;;;;;24.48;17.33;;;19.80;99.90;;;;;;5074801;28;20017;-75
2021/11/18 12:08:57;;;;;;;23.52;16.52;;;19.80;99.90;;;;;;5074808;28;20020;-75
2021/11/18 12:11:54;;;;;;;21.70;16.75;;;19.80;99.90;;;;;;5074796;28;20082;-74
2021/11/18 12:14:48;;;;;;;26.42;17.20;;;19.80;99.90;;;;;;5074696;28;20096;-75
2021/11/18 12:17:25;;;;;;;19.58;16.85;;;19.80;99.90;;;;;;5073272;28;20029;-75
2021/11/18 12:20:13;;;;;;;17.83;15.85;;;19.90;99.90;;;;;;5074913;28;20572;-75
2021/11/18 12:22:43;;;;;;;20.98;15.90;;;19.80;99.90;;;;;;5073053;28;20054;-75
2021/11/18 12:25:33;;;;;;;21.08;16.23;;;19.80;99.90;;;;;;5074393;28;20062;-75
2021/11/18 12:28:03;;;;;;;23.55;16.42;;;19.80;99.90;;;;;;5073030;28;20488;-75
2021/11/18 12:30:53;;;;;;;20.08;15.93;;;19.80;99.90;;;;;;5072987;28;20107;-75
2021/11/18 12:33:21;;;;;;;25.08;17.33;;;19.90;99.90;;;;;;5072817;28;20111;-75
2021/11/18 12:35:56;;;;;;;21.00;15.68;;;19.90;99.90;;;;;;5074426;28;20022;-75
2021/11/18 12:38:47;;;;;;;18.17;14.68;;;20.00;99.90;;;;;;5072954;28;20028;-74
2021/11/18 12:41:44;;;;;;;16.33;14.68;;;19.90;99.90;;;;;;5073986;28;20071;-74
2021/11/18 12:45:01;;;;;;;22.38;14.55;;;20.00;99.90;;;;;;5072985;28;20035;-74
2021/11/18 12:47:59;;;;;;;16.58;14.90;;;20.00;99.90;;;;;;5068448;28;20485;-75
2021/11/18 12:50:44;;;;;;;17.85;14.85;;;20.00;99.90;;;;;;5072650;28;20405;-75
2021/11/18 12:53:12;;;;;;;15.93;14.07;;;20.00;99.90;;;;;;5074053;28;20119;-75
2021/11/18 12:56:03;;;;;;;17.67;14.70;;;20.00;99.90;;;;;;5073688;28;20029;-74
2021/11/18 12:58:46;;;;;;;16.98;15.27;;;20.00;99.90;;;;;;5072725;28;20032;-74
2021/11/18 13:01:22;;;;;;;18.75;14.05;;;20.00;99.90;;;;;;5073721;28;20024;-75
2021/11/18 13:03:54;;;;;;;16.38;13.93;;;20.00;99.90;;;;;;5072255;28;20060;-74
2021/11/18 13:06:30;;;;;;;16.42;14.77;;;20.00;99.90;;;;;;5073473;28;20025;-74
2021/11/18 13:09:21;;;;;;;14.88;13.48;;;20.00;99.90;;;;;;5072029;28;20032;-75
2021/11/18 13:12:31;;;;;;;16.08;14.40;;;20.00;99.90;;;;;;5073416;28;20142;-75